Lake Station, Indiana
Current Conditions -  °F | °C
As of 5:45 AM on Saturday 25 Oct 2014 (Local Time) from KGYY Reporting Station
Haze Haze  
Wind Chill: 54°   Ceiling: Unl
Heat Index: 54°   Visibility: 5mi
Dew Point: 52°   Wind: 0mph
Humidity: 94%   Direction: NA
Pressure: 29.92"   Gusts: NA
Location:  41.57°N, 87.24°W
Report Text: KGYY 251045Z 00000KT 5SM BR SCT011 12/11 A2992
Loading
Personal Weather Stations






























Interactive Weather Map
Tropical Storm Tracking
New forecast layout! Learn more

10-Day Weather Forecast

Advertisements
Track Severe Weather on mobile